createdAt,value
2023-01-18T00:00:48.220Z,5.00
2023-01-18T00:03:15.007Z,5.00
2023-01-18T00:05:42.821Z,4.90
2023-01-18T00:08:16.430Z,5.00
2023-01-18T00:10:43.854Z,5.00
2023-01-18T00:13:11.283Z,5.00
2023-01-18T00:15:39.360Z,4.90
2023-01-18T00:18:06.323Z,4.90
2023-01-18T00:20:33.191Z,5.00
2023-01-18T00:23:01.880Z,4.90
2023-01-18T00:25:29.272Z,5.00
2023-01-18T00:27:56.920Z,5.00
2023-01-18T00:30:26.915Z,5.00
2023-01-18T00:32:56.720Z,5.00
2023-01-18T00:35:24.454Z,4.90
2023-01-18T00:37:52.781Z,4.90
2023-01-18T00:40:22.472Z,4.90
2023-01-18T00:43:08.033Z,4.90
2023-01-18T00:45:34.812Z,4.90
2023-01-18T00:48:02.678Z,4.80
2023-01-18T00:50:30.038Z,4.80
2023-01-18T00:53:00.172Z,4.80
2023-01-18T00:55:27.378Z,4.80
2023-01-18T00:57:54.234Z,4.80
2023-01-18T01:00:26.826Z,4.80
2023-01-18T01:02:54.459Z,4.80
2023-01-18T01:05:42.082Z,4.80
2023-01-18T01:08:16.664Z,4.80
2023-01-18T01:10:46.184Z,4.70
2023-01-18T01:13:36.258Z,4.60
2023-01-18T01:16:26.854Z,4.60
2023-01-18T01:19:13.272Z,4.60
2023-01-18T01:21:59.203Z,4.60
2023-01-18T01:24:45.115Z,4.50
2023-01-18T01:27:12.459Z,4.60
2023-01-18T01:29:39.530Z,4.60
2023-01-18T01:32:06.962Z,4.60
2023-01-18T01:34:33.770Z,4.60
2023-01-18T01:37:00.486Z,4.60
2023-01-18T01:39:27.340Z,4.60
2023-01-18T01:41:54.545Z,4.50
2023-01-18T01:44:21.274Z,4.50
2023-01-18T01:46:52.337Z,4.60
2023-01-18T01:49:28.417Z,4.50
2023-01-18T01:51:58.038Z,4.50
2023-01-18T01:54:33.657Z,4.50
2023-01-18T01:57:10.489Z,4.40
2023-01-18T01:59:43.806Z,4.40
2023-01-18T02:02:11.473Z,4.30
2023-01-18T02:04:44.079Z,4.30
2023-01-18T02:07:13.659Z,4.30
2023-01-18T02:09:41.124Z,4.30
2023-01-18T02:12:07.950Z,4.30
2023-01-18T02:14:35.881Z,4.20
2023-01-18T02:17:48.452Z,4.20
2023-01-18T02:20:59.598Z,4.20
2023-01-18T02:23:34.934Z,4.10
2023-01-18T02:26:12.847Z,4.10
2023-01-18T02:28:44.095Z,4.00
2023-01-18T02:31:26.293Z,4.00
2023-01-18T02:34:22.228Z,4.00
2023-01-18T02:37:10.123Z,4.00
2023-01-18T02:40:00.065Z,3.90
2023-01-18T02:43:03.637Z,3.90
2023-01-18T02:45:55.382Z,3.80
2023-01-18T02:48:24.676Z,3.80
2023-01-18T02:50:52.008Z,3.70
2023-01-18T02:53:18.791Z,3.70
2023-01-18T02:55:53.307Z,3.70
2023-01-18T02:58:24.599Z,3.70
2023-01-18T03:01:08.276Z,3.70
2023-01-18T03:03:35.785Z,3.80
2023-01-18T03:06:06.499Z,3.80
2023-01-18T03:08:40.243Z,3.80
2023-01-18T03:11:18.671Z,3.80
2023-01-18T03:14:03.503Z,3.80
2023-01-18T03:16:57.994Z,3.80
2023-01-18T03:20:00.110Z,3.80
2023-01-18T03:22:47.450Z,3.80
2023-01-18T03:25:18.551Z,3.90
2023-01-18T03:28:06.435Z,3.90
2023-01-18T03:30:53.844Z,3.90
2023-01-18T03:33:43.671Z,3.80
2023-01-18T03:36:21.818Z,3.80
2023-01-18T03:38:56.900Z,3.70
2023-01-18T03:41:28.577Z,3.70
2023-01-18T03:43:59.984Z,3.70
2023-01-18T03:46:30.691Z,3.80
2023-01-18T03:48:57.913Z,3.70
2023-01-18T03:51:37.917Z,3.70
2023-01-18T03:54:16.122Z,3.60
2023-01-18T03:56:52.709Z,3.60
2023-01-18T03:59:19.588Z,3.60
2023-01-18T04:01:48.182Z,3.60
2023-01-18T04:04:15.303Z,3.60
2023-01-18T04:06:42.510Z,3.70
2023-01-18T04:09:09.412Z,3.70
2023-01-18T04:11:36.238Z,3.70
2023-01-18T04:14:03.034Z,3.80
2023-01-18T04:16:29.847Z,3.80
2023-01-18T04:18:56.640Z,3.80
2023-01-18T04:21:23.362Z,3.80
2023-01-18T04:23:50.238Z,3.70
2023-01-18T04:26:16.987Z,3.70
2023-01-18T04:28:53.909Z,3.70
2023-01-18T04:31:20.752Z,3.70
2023-01-18T04:33:51.471Z,3.70
2023-01-18T04:36:20.109Z,3.60
2023-01-18T04:38:46.890Z,3.50
2023-01-18T04:41:13.636Z,3.50
2023-01-18T04:43:40.338Z,3.50
2023-01-18T04:46:07.078Z,3.60
2023-01-18T04:48:33.901Z,3.60
2023-01-18T04:51:00.766Z,3.60
2023-01-18T04:53:27.623Z,3.60
2023-01-18T04:55:54.377Z,3.60
2023-01-18T04:58:21.339Z,3.50
2023-01-18T05:00:48.200Z,3.50
2023-01-18T05:03:16.119Z,3.50
2023-01-18T05:05:43.125Z,3.50
2023-01-18T05:08:09.871Z,3.50
2023-01-18T05:10:36.989Z,3.50
2023-01-18T05:13:03.989Z,3.40
2023-01-18T05:15:30.945Z,3.50
2023-01-18T05:17:57.684Z,3.50
2023-01-18T05:20:24.429Z,3.50
2023-01-18T05:22:51.181Z,3.40
2023-01-18T05:25:17.947Z,3.40
2023-01-18T05:27:44.712Z,3.40
2023-01-18T05:30:11.972Z,3.50
2023-01-18T05:32:38.968Z,3.50
2023-01-18T05:35:06.534Z,3.50
2023-01-18T05:37:33.368Z,3.50
2023-01-18T05:40:00.183Z,3.50
2023-01-18T05:42:26.898Z,3.50
2023-01-18T05:44:53.816Z,3.60
2023-01-18T05:47:20.610Z,3.60
2023-01-18T05:49:47.287Z,3.60
2023-01-18T05:52:14.031Z,3.70
2023-01-18T05:54:40.747Z,3.70
2023-01-18T05:57:07.468Z,3.70
2023-01-18T05:59:35.204Z,3.70
2023-01-18T06:02:03.469Z,3.80
2023-01-18T06:04:30.359Z,3.70
2023-01-18T06:06:57.206Z,3.70
2023-01-18T06:09:23.991Z,3.70
2023-01-18T06:11:50.727Z,3.70
2023-01-18T06:14:17.473Z,3.70
2023-01-18T06:16:44.322Z,3.70
2023-01-18T06:19:11.154Z,3.70
2023-01-18T06:21:37.929Z,3.70
2023-01-18T06:24:04.851Z,3.70
2023-01-18T06:26:31.671Z,3.70
2023-01-18T06:28:58.623Z,3.70
2023-01-18T06:31:25.464Z,3.70
2023-01-18T06:33:52.295Z,3.70
2023-01-18T06:36:19.046Z,3.70
2023-01-18T06:38:45.868Z,3.70
2023-01-18T06:41:12.622Z,3.70
2023-01-18T06:43:39.938Z,3.70
2023-01-18T06:46:09.332Z,3.80
2023-01-18T06:48:36.445Z,3.80
2023-01-18T06:51:03.444Z,3.80
2023-01-18T06:53:30.620Z,3.80
2023-01-18T06:55:59.668Z,3.80
2023-01-18T06:58:27.974Z,3.90
2023-01-18T07:00:56.228Z,3.90
2023-01-18T07:03:24.392Z,3.90
2023-01-18T07:05:53.734Z,3.90
2023-01-18T07:08:21.008Z,3.90
2023-01-18T07:10:48.624Z,3.90
2023-01-18T07:13:15.824Z,3.90
2023-01-18T07:15:42.740Z,3.90
2023-01-18T07:18:09.669Z,4.00
2023-01-18T07:20:36.951Z,4.00
2023-01-18T07:23:05.023Z,4.00
2023-01-18T07:25:31.848Z,4.00
2023-01-18T07:27:58.600Z,4.00
2023-01-18T07:30:25.592Z,4.00
2023-01-18T07:32:53.360Z,3.90
2023-01-18T07:35:24.503Z,3.90
2023-01-18T07:37:53.172Z,3.90
2023-01-18T07:40:21.654Z,3.90
2023-01-18T07:42:49.949Z,4.00
2023-01-18T07:45:16.735Z,4.00
2023-01-18T07:47:46.130Z,4.00
2023-01-18T07:50:14.277Z,4.00
2023-01-18T07:52:41.074Z,4.00
2023-01-18T07:55:08.194Z,4.00
2023-01-18T07:57:35.070Z,3.90
2023-01-18T08:00:01.843Z,3.90
2023-01-18T08:02:28.592Z,3.90
2023-01-18T08:04:55.311Z,3.90
2023-01-18T08:07:22.099Z,3.90
2023-01-18T08:09:49.918Z,3.90
2023-01-18T08:12:18.596Z,3.90
2023-01-18T08:14:46.105Z,3.90
2023-01-18T08:17:12.854Z,3.90
2023-01-18T08:19:39.622Z,3.90
2023-01-18T08:22:07.834Z,3.90
2023-01-18T08:24:34.598Z,4.00
2023-01-18T08:27:01.417Z,3.90
2023-01-18T08:29:28.123Z,4.00
2023-01-18T08:31:55.211Z,4.00
2023-01-18T08:34:22.124Z,4.00
2023-01-18T08:36:50.974Z,4.00
2023-01-18T08:39:17.796Z,4.00
2023-01-18T08:41:46.587Z,4.10
2023-01-18T08:44:13.747Z,4.10
2023-01-18T08:46:40.839Z,4.10
2023-01-18T08:49:07.708Z,4.10
2023-01-18T08:51:34.571Z,4.10
2023-01-18T08:54:01.405Z,4.10
2023-01-18T08:56:28.414Z,4.20
2023-01-18T08:58:55.827Z,4.20
2023-01-18T09:01:23.738Z,4.20
2023-01-18T09:03:53.159Z,4.20
2023-01-18T09:06:19.939Z,4.30
2023-01-18T09:08:47.790Z,4.30
2023-01-18T09:11:15.913Z,4.40
2023-01-18T09:13:59.385Z,4.60
2023-01-18T09:16:27.085Z,4.80
2023-01-18T09:18:56.298Z,5.00
2023-01-18T09:21:23.562Z,5.30
2023-01-18T09:23:50.918Z,5.50
2023-01-18T09:26:20.725Z,5.80
2023-01-18T09:28:51.075Z,6.10
2023-01-18T09:31:19.695Z,6.30
2023-01-18T09:33:53.343Z,6.40
2023-01-18T09:36:23.860Z,6.60
2023-01-18T09:38:50.860Z,6.60
2023-01-18T09:41:42.794Z,6.70
2023-01-18T09:44:37.748Z,6.80
2023-01-18T09:47:24.468Z,6.90
2023-01-18T09:49:56.691Z,7.00
2023-01-18T09:52:23.414Z,7.10
2023-01-18T09:55:11.897Z,7.30
2023-01-18T09:57:55.341Z,7.40
2023-01-18T10:00:28.776Z,7.50
2023-01-18T10:03:01.380Z,7.70
2023-01-18T10:05:35.585Z,7.80
2023-01-18T10:08:14.757Z,7.90
2023-01-18T10:11:27.151Z,8.00
2023-01-18T10:14:05.389Z,8.00
2023-01-18T10:16:34.668Z,8.10
2023-01-18T10:19:01.691Z,8.20
2023-01-18T10:22:11.228Z,8.30
2023-01-18T10:24:45.985Z,8.40
2023-01-18T10:27:39.584Z,8.40
2023-01-18T10:30:25.621Z,8.30
2023-01-18T10:32:58.291Z,8.20
2023-01-18T10:35:30.774Z,8.10
2023-01-18T10:38:05.950Z,8.00
2023-01-18T10:40:34.546Z,7.90
2023-01-18T10:43:04.081Z,7.80
2023-01-18T10:45:33.618Z,7.70
2023-01-18T10:48:32.845Z,7.60
2023-01-18T10:51:01.384Z,7.50
2023-01-18T10:53:37.165Z,7.40
2023-01-18T10:56:06.009Z,7.30
2023-01-18T10:58:54.602Z,7.30
2023-01-18T11:01:24.485Z,7.20
2023-01-18T11:03:55.624Z,7.20
2023-01-18T11:06:24.386Z,7.20
2023-01-18T11:08:52.058Z,7.20
2023-01-18T11:11:57.431Z,7.20
2023-01-18T11:14:28.254Z,7.20
2023-01-18T11:17:02.180Z,7.20
2023-01-18T11:19:29.925Z,7.20
2023-01-18T11:21:56.767Z,7.20
2023-01-18T11:24:28.909Z,7.10
2023-01-18T11:26:57.793Z,7.20
2023-01-18T11:29:28.877Z,7.20
2023-01-18T11:31:56.211Z,7.20
2023-01-18T11:34:35.324Z,7.20
2023-01-18T11:37:03.090Z,7.20
2023-01-18T11:39:31.334Z,7.20
2023-01-18T11:42:10.563Z,7.30
2023-01-18T11:44:57.923Z,7.20
2023-01-18T11:47:34.747Z,7.30
2023-01-18T11:50:21.028Z,7.20
2023-01-18T11:53:03.324Z,7.30
2023-01-18T11:56:12.136Z,7.30
2023-01-18T11:58:40.489Z,7.30
2023-01-18T12:01:52.490Z,7.30
2023-01-18T12:04:53.205Z,7.40
2023-01-18T12:07:33.179Z,7.30
2023-01-18T12:10:08.612Z,7.40
2023-01-18T12:13:09.140Z,7.50
2023-01-18T12:15:51.855Z,7.40
2023-01-18T12:18:30.860Z,7.40
2023-01-18T12:21:06.399Z,7.40
2023-01-18T12:23:54.498Z,7.40
2023-01-18T12:26:30.867Z,7.40
2023-01-18T12:29:24.092Z,7.50
2023-01-18T12:31:57.405Z,7.50
2023-01-18T12:34:53.931Z,7.50
2023-01-18T12:37:45.966Z,7.50
2023-01-18T12:40:53.629Z,7.60
2023-01-18T12:43:35.820Z,7.60
2023-01-18T12:46:13.939Z,7.60
2023-01-18T12:48:53.065Z,7.60
2023-01-18T12:51:23.909Z,7.60
2023-01-18T12:54:02.787Z,7.70
2023-01-18T12:56:34.893Z,7.70
2023-01-18T12:59:21.837Z,7.70
2023-01-18T13:02:15.203Z,7.80
2023-01-18T13:04:56.680Z,7.80
2023-01-18T13:07:32.709Z,7.90
2023-01-18T13:10:00.681Z,7.90
2023-01-18T13:12:28.597Z,7.90
2023-01-18T13:15:07.787Z,7.90
2023-01-18T13:17:42.375Z,7.90
2023-01-18T13:20:22.264Z,8.00
2023-01-18T13:23:21.815Z,8.00
2023-01-18T13:26:12.564Z,8.00
2023-01-18T13:28:39.498Z,8.00
2023-01-18T13:31:06.644Z,8.10
2023-01-18T13:33:44.824Z,8.10
2023-01-18T13:36:18.118Z,8.10
2023-01-18T13:38:56.524Z,8.20
2023-01-18T13:41:29.229Z,8.30
2023-01-18T13:44:02.297Z,8.30
2023-01-18T13:46:32.782Z,8.40
2023-01-18T13:49:35.883Z,8.30
2023-01-18T13:52:33.927Z,8.30
2023-01-18T13:55:05.240Z,8.30
2023-01-18T13:57:34.052Z,8.30
2023-01-18T14:00:02.348Z,8.20
2023-01-18T14:02:50.280Z,8.20
2023-01-18T14:05:16.949Z,8.20
2023-01-18T14:07:47.904Z,8.20
2023-01-18T14:10:26.317Z,8.20
2023-01-18T14:12:55.120Z,8.10
2023-01-18T14:15:27.524Z,8.10
2023-01-18T14:17:58.959Z,8.10
2023-01-18T14:20:49.002Z,8.10
2023-01-18T14:23:32.356Z,8.00
2023-01-18T14:26:03.606Z,8.00
2023-01-18T14:28:50.941Z,8.00
2023-01-18T14:31:26.753Z,8.00
2023-01-18T14:33:53.719Z,8.00
2023-01-18T14:36:24.461Z,8.00
2023-01-18T14:39:12.703Z,8.00
2023-01-18T14:41:45.829Z,8.00
2023-01-18T14:44:31.039Z,8.00
2023-01-18T14:46:58.920Z,8.00
2023-01-18T14:49:29.820Z,8.00
2023-01-18T14:51:58.379Z,7.90
2023-01-18T14:54:25.923Z,7.90
2023-01-18T14:57:01.506Z,7.90
2023-01-18T14:59:31.064Z,7.90
2023-01-18T15:02:01.028Z,7.90
2023-01-18T15:04:30.406Z,7.80
2023-01-18T15:07:27.633Z,7.80
2023-01-18T15:09:54.556Z,7.80
2023-01-18T15:12:28.860Z,7.80
2023-01-18T15:15:01.036Z,7.80
2023-01-18T15:17:27.858Z,7.70
2023-01-18T15:19:59.337Z,7.70
2023-01-18T15:22:32.011Z,7.70
2023-01-18T15:25:00.346Z,7.70
2023-01-18T15:27:31.621Z,7.60
2023-01-18T15:29:59.992Z,7.60
2023-01-18T15:32:32.763Z,7.60
2023-01-18T15:35:00.897Z,7.60
2023-01-18T15:37:30.913Z,7.60
2023-01-18T15:39:58.226Z,7.60
2023-01-18T15:42:32.203Z,7.60
2023-01-18T15:44:59.973Z,7.60
2023-01-18T15:47:30.044Z,7.60
2023-01-18T15:49:59.856Z,7.60
2023-01-18T15:52:39.017Z,7.60
2023-01-18T15:55:14.250Z,7.60
2023-01-18T15:57:54.276Z,7.50
2023-01-18T16:00:45.325Z,7.50
2023-01-18T16:03:38.311Z,7.50
2023-01-18T16:06:21.700Z,7.50
2023-01-18T16:09:12.786Z,7.50
2023-01-18T16:11:53.053Z,7.40
2023-01-18T16:14:28.969Z,7.40
2023-01-18T16:17:10.252Z,7.40
2023-01-18T16:19:50.076Z,7.40
2023-01-18T16:22:26.305Z,7.40
2023-01-18T16:25:01.857Z,7.40
2023-01-18T16:27:31.426Z,7.40
2023-01-18T16:30:23.935Z,7.40
2023-01-18T16:32:50.804Z,7.40
2023-01-18T16:35:20.476Z,7.40
2023-01-18T16:37:47.606Z,7.40
2023-01-18T16:40:16.712Z,7.40
2023-01-18T16:43:04.885Z,7.40
2023-01-18T16:45:37.243Z,7.40
2023-01-18T16:48:05.496Z,7.40
2023-01-18T16:50:34.109Z,7.40
2023-01-18T16:53:00.853Z,7.40
2023-01-18T16:55:27.781Z,7.40
2023-01-18T16:57:54.614Z,7.40
2023-01-18T17:00:23.956Z,7.40
2023-01-18T17:02:51.709Z,7.40
2023-01-18T17:05:19.029Z,7.40
2023-01-18T17:07:46.485Z,7.40
2023-01-18T17:10:27.286Z,7.40
2023-01-18T17:12:55.210Z,7.40
2023-01-18T17:15:23.846Z,7.40
2023-01-18T17:17:50.559Z,7.40
2023-01-18T17:20:24.121Z,7.50
2023-01-18T17:22:51.605Z,7.50
2023-01-18T17:25:20.036Z,7.50
2023-01-18T17:27:47.359Z,7.50
2023-01-18T17:30:18.455Z,7.40
2023-01-18T17:32:46.917Z,7.50
2023-01-18T17:35:16.358Z,7.40
2023-01-18T17:37:43.171Z,7.40
2023-01-18T17:40:17.104Z,7.40
2023-01-18T17:42:46.999Z,7.40
2023-01-18T17:45:17.081Z,7.40
2023-01-18T17:47:43.956Z,7.30
2023-01-18T17:50:14.227Z,7.30
2023-01-18T17:52:41.430Z,7.30
2023-01-18T17:55:11.392Z,7.30
2023-01-18T17:57:38.650Z,7.30
2023-01-18T18:00:08.092Z,7.40
2023-01-18T18:02:35.331Z,7.40
2023-01-18T18:05:02.203Z,7.40
2023-01-18T18:07:29.495Z,7.40
2023-01-18T18:10:00.819Z,7.40
2023-01-18T18:12:29.444Z,7.40
2023-01-18T18:14:56.350Z,7.40
2023-01-18T18:17:24.464Z,7.40
2023-01-18T18:19:51.460Z,7.40
2023-01-18T18:22:19.825Z,7.40
2023-01-18T18:24:48.127Z,7.40
2023-01-18T18:27:15.606Z,7.40
2023-01-18T18:29:42.397Z,7.40
2023-01-18T18:32:10.331Z,7.40
2023-01-18T18:34:37.415Z,7.40
2023-01-18T18:37:05.239Z,7.40
2023-01-18T18:39:32.924Z,7.40
2023-01-18T18:42:00.392Z,7.30
2023-01-18T18:44:27.450Z,7.30
2023-01-18T18:46:54.250Z,7.30
2023-01-18T18:49:21.030Z,7.30
2023-01-18T18:51:47.756Z,7.20
2023-01-18T18:54:15.035Z,7.20
2023-01-18T18:56:42.239Z,7.10
2023-01-18T18:59:11.443Z,7.10
2023-01-18T19:01:38.395Z,7.10
2023-01-18T19:04:05.811Z,7.00
2023-01-18T19:06:32.816Z,7.00
2023-01-18T19:08:59.623Z,6.90
2023-01-18T19:11:26.399Z,6.90
2023-01-18T19:13:55.768Z,6.90
2023-01-18T19:16:23.039Z,6.90
2023-01-18T19:18:49.862Z,6.90
2023-01-18T19:21:16.609Z,6.90
2023-01-18T19:23:43.391Z,6.90
2023-01-18T19:26:10.194Z,6.80
2023-01-18T19:28:36.977Z,6.90
2023-01-18T19:31:06.060Z,6.80
2023-01-18T19:33:32.923Z,6.80
2023-01-18T19:36:08.271Z,6.80
2023-01-18T19:38:45.242Z,6.80
2023-01-18T19:41:13.085Z,6.70
2023-01-18T19:43:39.826Z,6.70
2023-01-18T19:46:08.362Z,6.70
2023-01-18T19:48:36.754Z,6.70
2023-01-18T19:51:23.294Z,6.70
2023-01-18T19:53:52.821Z,6.70
2023-01-18T19:56:20.169Z,6.70
2023-01-18T19:58:49.631Z,6.70
2023-01-18T20:01:30.184Z,6.70
2023-01-18T20:04:01.215Z,6.70
2023-01-18T20:06:27.965Z,6.70
2023-01-18T20:08:54.976Z,6.70
2023-01-18T20:11:21.746Z,6.70
2023-01-18T20:13:50.036Z,6.70
2023-01-18T20:16:20.157Z,6.70
2023-01-18T20:18:48.691Z,6.70
2023-01-18T20:21:18.320Z,6.70
2023-01-18T20:23:45.626Z,6.80
2023-01-18T20:26:15.412Z,6.70
2023-01-18T20:28:43.671Z,6.70
2023-01-18T20:31:10.638Z,6.70
2023-01-18T20:33:38.394Z,6.70
2023-01-18T20:36:06.812Z,6.60
2023-01-18T20:38:34.484Z,6.60
2023-01-18T20:41:01.829Z,6.60
2023-01-18T20:43:28.764Z,6.50
2023-01-18T20:46:03.002Z,6.60
2023-01-18T20:48:32.311Z,6.50
2023-01-18T20:51:02.774Z,6.50
2023-01-18T20:53:30.764Z,6.50
2023-01-18T20:56:17.084Z,6.50
2023-01-18T20:58:54.384Z,6.50
2023-01-18T21:01:21.271Z,6.50
2023-01-18T21:03:54.459Z,6.50
2023-01-18T21:06:21.537Z,6.50
2023-01-18T21:08:51.139Z,6.50
2023-01-18T21:11:17.919Z,6.50
2023-01-18T21:13:44.651Z,6.40
2023-01-18T21:16:11.550Z,6.40
2023-01-18T21:18:39.374Z,6.40
2023-01-18T21:21:07.361Z,6.40
2023-01-18T21:23:39.338Z,6.50
2023-01-18T21:26:09.626Z,6.50
2023-01-18T21:28:36.740Z,6.60
2023-01-18T21:31:04.418Z,6.60
2023-01-18T21:33:31.759Z,6.70
2023-01-18T21:36:09.196Z,6.70
2023-01-18T21:38:36.279Z,6.80
2023-01-18T21:41:21.970Z,6.80
2023-01-18T21:44:09.223Z,6.90
2023-01-18T21:46:37.579Z,6.90
2023-01-18T21:49:07.455Z,6.90
2023-01-18T21:51:52.979Z,7.00
2023-01-18T21:54:22.123Z,7.00
2023-01-18T21:56:50.764Z,7.10
2023-01-18T21:59:17.704Z,7.10
2023-01-18T22:01:47.071Z,7.10
2023-01-18T22:04:33.897Z,7.20
2023-01-18T22:07:00.813Z,7.20
2023-01-18T22:09:29.316Z,7.20
2023-01-18T22:11:57.509Z,7.30
2023-01-18T22:14:25.055Z,7.30
2023-01-18T22:16:51.981Z,7.40
2023-01-18T22:19:21.571Z,7.40
2023-01-18T22:21:49.566Z,7.40
2023-01-18T22:24:17.448Z,7.30
2023-01-18T22:26:45.148Z,7.30
2023-01-18T22:29:12.726Z,7.20
2023-01-18T22:31:40.229Z,7.20
2023-01-18T22:34:07.865Z,7.20
2023-01-18T22:36:34.648Z,7.20
2023-01-18T22:39:01.443Z,7.10
2023-01-18T22:41:29.520Z,7.10
2023-01-18T22:43:56.496Z,7.10
2023-01-18T22:46:24.034Z,7.20
2023-01-18T22:48:51.337Z,7.20
2023-01-18T22:51:21.153Z,7.20
2023-01-18T22:53:48.327Z,7.20
2023-01-18T22:56:20.657Z,7.20
2023-01-18T22:58:48.381Z,7.20
2023-01-18T23:01:25.157Z,7.20
2023-01-18T23:03:54.708Z,7.20
2023-01-18T23:06:21.607Z,7.20
2023-01-18T23:08:49.145Z,7.10
2023-01-18T23:11:23.674Z,7.10
2023-01-18T23:14:12.516Z,7.20
2023-01-18T23:16:58.289Z,7.20
2023-01-18T23:19:26.228Z,7.10
2023-01-18T23:21:54.449Z,7.10
2023-01-18T23:24:22.132Z,7.00
2023-01-18T23:26:49.522Z,7.00
2023-01-18T23:29:16.559Z,7.00
2023-01-18T23:31:43.419Z,7.00
2023-01-18T23:34:10.384Z,6.90
2023-01-18T23:36:37.247Z,6.90
2023-01-18T23:39:22.973Z,6.90
2023-01-18T23:42:08.509Z,6.90
2023-01-18T23:44:54.084Z,6.90
2023-01-18T23:47:39.434Z,6.90
2023-01-18T23:50:25.207Z,7.00
2023-01-18T23:53:10.611Z,6.90
2023-01-18T23:55:37.408Z,7.00
2023-01-18T23:58:04.091Z,7.00
